createdAt,value
2018-06-13T00:02:16.116Z,16.00
2018-06-13T00:04:43.893Z,16.00
2018-06-13T00:09:40.236Z,15.80
2018-06-13T00:12:08.030Z,15.70
2018-06-13T00:14:35.815Z,15.80
2018-06-13T00:17:03.734Z,15.70
2018-06-13T00:19:31.505Z,15.80
2018-06-13T00:21:59.268Z,16.30
2018-06-13T00:24:26.995Z,15.70
2018-06-13T00:26:54.720Z,15.90
2018-06-13T00:29:22.451Z,15.60
2018-06-13T00:31:50.178Z,15.70
2018-06-13T00:34:18.292Z,15.80
2018-06-13T00:36:46.257Z,15.90
2018-06-13T00:39:13.975Z,15.60
2018-06-13T00:41:41.724Z,15.70
2018-06-13T00:44:09.547Z,15.30
2018-06-13T00:46:37.280Z,15.20
2018-06-13T00:49:05.337Z,15.20
2018-06-13T00:51:33.151Z,15.20
2018-06-13T00:54:01.292Z,15.00
2018-06-13T00:56:31.400Z,15.30
2018-06-13T00:58:59.134Z,15.10
2018-06-13T01:03:54.562Z,14.70
2018-06-13T01:08:49.939Z,14.60
2018-06-13T01:11:18.119Z,14.70
2018-06-13T01:13:45.832Z,14.60
2018-06-13T01:18:41.403Z,14.80
2018-06-13T01:21:09.703Z,14.70
2018-06-13T01:23:37.419Z,14.70
2018-06-13T01:26:05.160Z,14.20
2018-06-13T01:28:32.964Z,14.80
2018-06-13T01:31:00.726Z,14.20
2018-06-13T01:33:28.469Z,14.10
2018-06-13T01:35:56.225Z,14.30
2018-06-13T01:38:24.384Z,14.20
2018-06-13T01:43:20.371Z,14.10
2018-06-13T01:45:48.292Z,14.10
2018-06-13T01:48:16.028Z,14.30
2018-06-13T01:50:54.493Z,14.20
2018-06-13T01:53:22.475Z,14.20
2018-06-13T01:55:50.212Z,14.50
2018-06-13T02:00:46.104Z,14.00
2018-06-13T02:03:13.828Z,14.20
2018-06-13T02:05:41.631Z,14.10
2018-06-13T02:08:09.356Z,14.00
2018-06-13T02:10:37.052Z,14.10
2018-06-13T02:13:04.761Z,14.10
2018-06-13T02:15:32.616Z,14.00
2018-06-13T02:18:00.327Z,14.10
2018-06-13T02:20:28.135Z,14.00
2018-06-13T02:22:56.335Z,14.20
2018-06-13T02:25:24.056Z,14.10
2018-06-13T02:27:51.757Z,14.00
2018-06-13T02:30:19.976Z,14.10
2018-06-13T02:32:47.720Z,14.00
2018-06-13T02:35:15.448Z,14.10
2018-06-13T02:37:43.176Z,14.10
2018-06-13T02:40:11.044Z,14.20
2018-06-13T02:42:38.779Z,14.20
2018-06-13T02:45:07.264Z,14.10
2018-06-13T02:47:35.024Z,14.10
2018-06-13T02:50:02.787Z,14.40
2018-06-13T02:52:30.526Z,14.60
2018-06-13T02:54:58.363Z,14.20
2018-06-13T02:57:26.115Z,14.10
2018-06-13T02:59:53.876Z,14.50
2018-06-13T03:02:21.596Z,14.50
2018-06-13T03:04:49.318Z,14.10
2018-06-13T03:07:17.100Z,14.20
2018-06-13T03:12:12.416Z,14.40
2018-06-13T03:14:40.125Z,14.00
2018-06-13T03:17:07.817Z,14.10
2018-06-13T03:19:35.516Z,14.10
2018-06-13T03:22:03.240Z,14.20
2018-06-13T03:24:30.940Z,14.60
2018-06-13T03:26:58.659Z,14.60
2018-06-13T03:29:26.383Z,14.10
2018-06-13T03:31:54.096Z,14.10
2018-06-13T03:34:21.799Z,14.10
2018-06-13T03:36:49.508Z,14.20
2018-06-13T03:39:17.200Z,14.50
2018-06-13T03:41:44.925Z,14.40
2018-06-13T03:44:12.657Z,14.00
2018-06-13T03:46:47.304Z,14.50
2018-06-13T03:51:42.718Z,14.40
2018-06-13T03:56:38.044Z,14.50
2018-06-13T03:59:05.751Z,14.40
2018-06-13T04:01:33.465Z,14.70
2018-06-13T04:04:01.195Z,14.50
2018-06-13T04:06:28.910Z,14.50
2018-06-13T04:08:56.632Z,14.50
2018-06-13T04:11:24.323Z,14.40
2018-06-13T04:13:52.023Z,14.60
2018-06-13T04:16:20.197Z,14.50
2018-06-13T04:18:47.935Z,14.60
2018-06-13T04:23:43.228Z,14.40
2018-06-13T04:26:10.939Z,14.50
2018-06-13T04:28:38.627Z,14.50
2018-06-13T04:31:06.355Z,14.50
2018-06-13T04:33:34.088Z,14.60
2018-06-13T04:36:01.835Z,14.60
2018-06-13T04:38:29.620Z,14.50
2018-06-13T04:40:57.312Z,14.90
2018-06-13T04:43:25.028Z,14.50
2018-06-13T04:45:52.728Z,14.70
2018-06-13T04:50:48.060Z,15.00
2018-06-13T04:55:43.412Z,14.90
2018-06-13T04:58:11.151Z,15.20
2018-06-13T05:00:39.120Z,15.00
2018-06-13T05:03:06.828Z,15.00
2018-06-13T05:05:34.532Z,15.00
2018-06-13T05:08:02.258Z,15.00
2018-06-13T05:10:29.959Z,15.30
2018-06-13T05:12:57.687Z,15.10
2018-06-13T05:15:25.391Z,15.20
2018-06-13T05:20:20.719Z,15.10
2018-06-13T05:22:48.443Z,15.10
2018-06-13T05:25:16.168Z,15.10
2018-06-13T05:27:43.895Z,15.00
2018-06-13T05:30:11.619Z,15.70
2018-06-13T05:32:39.353Z,15.90
2018-06-13T05:35:07.104Z,15.90
2018-06-13T05:40:02.499Z,15.50
2018-06-13T05:42:30.216Z,15.90
2018-06-13T05:44:57.915Z,16.40
2018-06-13T05:47:25.637Z,16.10
2018-06-13T05:49:53.380Z,16.40
2018-06-13T05:52:21.105Z,16.40
2018-06-13T05:54:48.846Z,16.40
2018-06-13T05:57:16.548Z,16.40
2018-06-13T05:59:44.312Z,16.00
2018-06-13T06:02:12.016Z,15.60
2018-06-13T06:04:39.728Z,15.80
2018-06-13T06:07:07.461Z,15.70
2018-06-13T06:09:35.184Z,15.30
2018-06-13T06:12:02.947Z,15.70
2018-06-13T06:14:30.728Z,15.50
2018-06-13T06:16:58.443Z,15.70
2018-06-13T06:19:26.195Z,15.60
2018-06-13T06:21:53.923Z,15.70
2018-06-13T06:26:49.228Z,15.70
2018-06-13T06:29:16.916Z,15.90
2018-06-13T06:31:44.639Z,16.40
2018-06-13T06:34:12.336Z,16.40
2018-06-13T06:36:40.152Z,16.50
2018-06-13T06:39:08.091Z,16.40
2018-06-13T06:41:35.872Z,16.30
2018-06-13T06:44:03.674Z,16.30
2018-06-13T06:46:31.408Z,16.50
2018-06-13T06:48:59.128Z,16.50
2018-06-13T06:53:54.491Z,17.20
2018-06-13T06:56:22.249Z,17.30
2018-06-13T06:58:49.959Z,17.00
2018-06-13T07:01:17.699Z,17.30
2018-06-13T07:03:45.468Z,17.40
2018-06-13T07:06:13.212Z,17.40
2018-06-13T07:08:40.959Z,17.90
2018-06-13T07:11:08.828Z,17.30
2018-06-13T07:13:36.666Z,17.20
2018-06-13T07:16:04.495Z,16.90
2018-06-13T07:18:32.352Z,16.50
2018-06-13T07:21:00.223Z,16.50
2018-06-13T07:23:28.046Z,16.40
2018-06-13T07:25:55.784Z,16.50
2018-06-13T07:28:23.512Z,16.50
2018-06-13T07:30:51.274Z,17.10
2018-06-13T07:33:19.046Z,17.10
2018-06-13T07:35:46.821Z,17.40
2018-06-13T07:38:14.578Z,17.10
2018-06-13T07:40:42.448Z,17.10
2018-06-13T07:43:10.206Z,17.20
2018-06-13T07:45:37.958Z,17.30
2018-06-13T07:48:05.739Z,17.30
2018-06-13T07:50:33.500Z,17.10
2018-06-13T07:53:01.266Z,17.10
2018-06-13T07:55:29.051Z,16.80
2018-06-13T07:57:56.795Z,16.90
2018-06-13T08:00:24.564Z,16.60
2018-06-13T08:02:52.263Z,16.60
2018-06-13T08:05:19.996Z,16.80
2018-06-13T08:07:47.753Z,16.60
2018-06-13T08:10:15.544Z,16.60
2018-06-13T08:12:43.285Z,16.50
2018-06-13T08:15:11.018Z,16.50
2018-06-13T08:17:38.735Z,16.40
2018-06-13T08:20:06.536Z,16.40
2018-06-13T08:22:34.266Z,16.40
2018-06-13T08:25:01.984Z,16.40
2018-06-13T08:27:29.773Z,16.50
2018-06-13T08:29:57.540Z,16.50
2018-06-13T08:32:25.323Z,16.40
2018-06-13T08:34:53.067Z,16.70
2018-06-13T08:37:20.783Z,16.40
2018-06-13T08:39:48.555Z,16.60
2018-06-13T08:42:16.280Z,16.30
2018-06-13T08:44:44.009Z,16.40
2018-06-13T08:47:11.736Z,16.50
2018-06-13T08:49:39.471Z,16.40
2018-06-13T08:52:07.200Z,16.40
2018-06-13T08:54:34.954Z,16.30
2018-06-13T08:57:02.684Z,16.30
2018-06-13T08:59:30.427Z,16.50
2018-06-13T09:01:58.156Z,16.30
2018-06-13T09:04:25.881Z,16.80
2018-06-13T09:06:53.611Z,16.90
2018-06-13T09:09:21.356Z,16.90
2018-06-13T09:11:49.096Z,16.90
2018-06-13T09:14:16.809Z,16.90
2018-06-13T09:16:44.565Z,17.00
2018-06-13T09:19:12.287Z,17.00
2018-06-13T09:21:40.013Z,17.10
2018-06-13T09:26:35.383Z,17.00
2018-06-13T09:29:03.109Z,17.20
2018-06-13T09:33:58.455Z,17.10
2018-06-13T09:36:26.180Z,17.60
2018-06-13T09:38:53.895Z,17.20
2018-06-13T09:41:21.611Z,17.90
2018-06-13T09:43:49.366Z,17.70
2018-06-13T09:46:17.095Z,17.40
2018-06-13T09:48:44.839Z,17.10
2018-06-13T09:51:12.936Z,17.20
2018-06-13T09:53:40.659Z,17.10
2018-06-13T09:56:08.396Z,16.90
2018-06-13T09:58:41.883Z,17.00
2018-06-13T10:02:13.088Z,16.90
2018-06-13T10:04:40.890Z,16.90
2018-06-13T10:07:08.620Z,16.80
2018-06-13T10:09:36.368Z,16.40
2018-06-13T10:12:04.119Z,16.30
2018-06-13T10:19:27.200Z,16.80
2018-06-13T10:21:55.012Z,17.10
2018-06-13T10:24:22.831Z,17.00
2018-06-13T10:26:50.593Z,17.00
2018-06-13T10:29:18.361Z,17.10
2018-06-13T10:31:46.128Z,17.20
2018-06-13T10:36:41.580Z,17.40
2018-06-13T10:39:09.349Z,17.30
2018-06-13T10:41:37.136Z,17.80
2018-06-13T10:44:09.437Z,18.10
2018-06-13T10:46:37.261Z,18.00
2018-06-13T10:49:05.026Z,18.50
2018-06-13T10:51:33.977Z,18.60
2018-06-13T10:56:30.356Z,18.10
2018-06-13T10:58:58.124Z,17.70
2018-06-13T11:01:27.764Z,17.70
2018-06-13T11:03:55.564Z,17.80
2018-06-13T11:06:23.363Z,17.80
2018-06-13T11:08:51.107Z,17.40
2018-06-13T11:13:46.520Z,17.40
2018-06-13T11:18:41.941Z,17.20
2018-06-13T11:21:09.688Z,17.70
2018-06-13T11:23:37.592Z,17.80
2018-06-13T11:28:32.971Z,17.60
2018-06-13T11:31:01.091Z,17.60
2018-06-13T11:35:56.552Z,17.70
2018-06-13T11:38:24.342Z,17.90
2018-06-13T11:40:52.167Z,17.80
2018-06-13T11:43:26.666Z,17.90
2018-06-13T11:48:24.339Z,17.60
2018-06-13T11:50:52.418Z,17.80
2018-06-13T11:55:47.967Z,18.00
2018-06-13T11:58:15.742Z,17.80
2018-06-13T12:00:45.098Z,17.70
2018-06-13T12:03:13.076Z,17.80
2018-06-13T12:05:42.026Z,17.90
2018-06-13T12:08:09.816Z,18.20
2018-06-13T12:10:37.820Z,17.70
2018-06-13T12:13:05.946Z,17.80
2018-06-13T12:15:33.798Z,18.40
2018-06-13T12:18:01.593Z,18.20
2018-06-13T12:20:29.375Z,18.60
2018-06-13T12:22:57.130Z,18.70
2018-06-13T12:25:25.826Z,18.90
2018-06-13T12:27:53.823Z,19.20
2018-06-13T12:30:21.597Z,19.00
2018-06-13T12:32:49.487Z,19.50
2018-06-13T12:35:17.242Z,19.70
2018-06-13T12:37:45.475Z,19.40
2018-06-13T12:40:13.267Z,19.40
2018-06-13T12:45:08.592Z,18.90
2018-06-13T12:47:36.324Z,18.60
2018-06-13T12:50:04.192Z,18.80
2018-06-13T12:52:31.899Z,18.80
2018-06-13T12:54:59.665Z,19.00
2018-06-13T12:57:27.413Z,18.80
2018-06-13T12:59:55.216Z,18.50
2018-06-13T13:02:23.017Z,18.80
2018-06-13T13:04:50.772Z,19.30
2018-06-13T13:07:18.555Z,19.00
2018-06-13T13:09:46.276Z,19.50
2018-06-13T13:12:14.053Z,19.40
2018-06-13T13:14:41.805Z,19.70
2018-06-13T13:17:09.583Z,20.10
2018-06-13T13:19:37.537Z,20.50
2018-06-13T13:22:05.519Z,20.80
2018-06-13T13:24:33.331Z,21.40
2018-06-13T13:27:01.137Z,21.50
2018-06-13T13:29:28.990Z,21.70
2018-06-13T13:31:56.873Z,21.90
2018-06-13T13:34:24.650Z,22.40
2018-06-13T13:36:52.412Z,23.30
2018-06-13T13:39:20.228Z,23.20
2018-06-13T13:44:15.620Z,22.20
2018-06-13T13:46:43.357Z,21.90
2018-06-13T13:49:11.154Z,21.40
2018-06-13T13:51:39.022Z,21.20
2018-06-13T13:56:34.452Z,20.40
2018-06-13T14:01:29.927Z,20.30
2018-06-13T14:03:57.709Z,20.50
2018-06-13T14:06:25.475Z,20.30
2018-06-13T14:08:53.271Z,20.00
2018-06-13T14:11:21.205Z,20.40
2018-06-13T14:13:48.943Z,20.90
2018-06-13T14:16:17.653Z,21.20
2018-06-13T14:18:45.417Z,22.10
2018-06-13T14:21:13.183Z,22.30
2018-06-13T14:23:40.936Z,22.20
2018-06-13T14:26:08.715Z,22.60
2018-06-13T14:28:36.523Z,22.60
2018-06-13T14:33:32.013Z,23.70
2018-06-13T14:35:59.768Z,23.30
2018-06-13T14:40:55.144Z,23.80
2018-06-13T14:43:22.990Z,24.10
2018-06-13T14:45:50.756Z,23.20
2018-06-13T14:48:18.540Z,23.30
2018-06-13T14:53:13.991Z,24.20
2018-06-13T14:55:50.270Z,23.80
2018-06-13T14:58:18.023Z,23.90
2018-06-13T15:00:45.813Z,22.30
2018-06-13T15:03:13.551Z,22.00
2018-06-13T15:05:41.274Z,21.80
2018-06-13T15:08:09.109Z,21.60
2018-06-13T15:13:04.603Z,21.30
2018-06-13T15:18:00.018Z,21.30
2018-06-13T15:20:27.803Z,20.90
2018-06-13T15:22:55.545Z,20.80
2018-06-13T15:27:50.955Z,21.40
2018-06-13T15:30:18.743Z,20.90
2018-06-13T15:35:14.292Z,20.80
2018-06-13T15:37:42.049Z,21.00
2018-06-13T15:40:09.804Z,21.00
2018-06-13T15:42:37.575Z,20.60
2018-06-13T15:45:05.516Z,20.70
2018-06-13T15:50:00.912Z,20.90
2018-06-13T15:52:28.692Z,21.00
2018-06-13T15:54:56.435Z,20.20
2018-06-13T15:57:24.184Z,20.20
2018-06-13T15:59:52.119Z,20.50
2018-06-13T16:02:19.855Z,20.30
2018-06-13T16:04:47.619Z,20.40
2018-06-13T16:07:15.372Z,20.40
2018-06-13T16:09:43.158Z,20.30
2018-06-13T16:12:10.899Z,20.70
2018-06-13T16:17:06.310Z,20.50
2018-06-13T16:19:34.080Z,20.90
2018-06-13T16:22:01.912Z,21.00
2018-06-13T16:24:29.647Z,20.80
2018-06-13T16:26:57.409Z,20.90
2018-06-13T16:29:25.140Z,20.80
2018-06-13T16:31:52.898Z,20.60
2018-06-13T16:34:20.632Z,20.80
2018-06-13T16:36:48.476Z,20.80
2018-06-13T16:41:44.180Z,20.30
2018-06-13T16:44:11.924Z,20.30
2018-06-13T16:46:39.708Z,20.00
2018-06-13T16:49:07.435Z,20.30
2018-06-13T16:51:53.776Z,20.50
2018-06-13T16:54:32.764Z,20.80
2018-06-13T16:57:00.511Z,20.70
2018-06-13T16:59:28.255Z,20.50
2018-06-13T17:04:23.851Z,20.90
2018-06-13T17:06:52.088Z,20.90
2018-06-13T17:09:19.830Z,20.70
2018-06-13T17:14:15.586Z,20.40
2018-06-13T17:19:10.952Z,20.50
2018-06-13T17:21:38.721Z,20.50
2018-06-13T17:24:06.515Z,20.20
2018-06-13T17:29:01.925Z,19.90
2018-06-13T17:31:29.719Z,20.20
2018-06-13T17:33:57.464Z,19.80
2018-06-13T17:36:25.267Z,19.90
2018-06-13T17:38:52.964Z,19.60
2018-06-13T17:41:20.695Z,19.40
2018-06-13T17:43:48.427Z,19.60
2018-06-13T17:46:16.383Z,19.50
2018-06-13T17:48:44.167Z,19.30
2018-06-13T17:51:11.918Z,19.60
2018-06-13T17:53:39.688Z,19.30
2018-06-13T17:56:07.461Z,19.20
2018-06-13T17:58:35.188Z,19.10
2018-06-13T18:01:02.948Z,19.20
2018-06-13T18:03:30.712Z,19.10
2018-06-13T18:05:58.497Z,19.30
2018-06-13T18:08:26.356Z,19.30
2018-06-13T18:10:54.175Z,19.20
2018-06-13T18:13:22.748Z,19.40
2018-06-13T18:18:18.256Z,19.20
2018-06-13T18:20:46.008Z,19.00
2018-06-13T18:23:13.801Z,19.10
2018-06-13T18:28:09.157Z,19.20
2018-06-13T18:30:36.902Z,19.00
2018-06-13T18:33:04.828Z,18.80
2018-06-13T18:35:32.576Z,18.70
2018-06-13T18:38:00.376Z,18.70
2018-06-13T18:40:28.100Z,18.80
2018-06-13T18:42:55.867Z,18.70
2018-06-13T18:45:23.653Z,18.80
2018-06-13T18:47:51.464Z,18.40
2018-06-13T18:50:19.266Z,18.50
2018-06-13T18:52:46.971Z,18.40
2018-06-13T18:57:42.405Z,18.60
2018-06-13T19:00:10.184Z,18.60
2018-06-13T19:02:37.955Z,18.50
2018-06-13T19:05:05.836Z,17.90
2018-06-13T19:07:33.564Z,18.00
2018-06-13T19:12:29.505Z,17.30
2018-06-13T19:14:59.457Z,17.70
2018-06-13T19:17:27.231Z,17.10
2018-06-13T19:19:54.931Z,17.70
2018-06-13T19:22:22.665Z,17.30
2018-06-13T19:24:51.075Z,17.60
2018-06-13T19:27:18.777Z,17.10
2018-06-13T19:29:46.548Z,17.20
2018-06-13T19:32:14.336Z,17.10
2018-06-13T19:34:42.084Z,17.10
2018-06-13T19:37:09.825Z,16.70
2018-06-13T19:39:37.549Z,16.90
2018-06-13T19:42:05.472Z,16.60
2018-06-13T19:44:33.240Z,16.90
2018-06-13T19:47:06.962Z,17.00
2018-06-13T19:49:34.737Z,16.60
2018-06-13T19:52:02.460Z,16.70
2018-06-13T19:54:35.823Z,16.50
2018-06-13T19:57:03.672Z,16.50
2018-06-13T19:59:31.419Z,16.60
2018-06-13T20:01:59.175Z,16.70
2018-06-13T20:04:32.756Z,16.00
2018-06-13T20:07:00.485Z,16.30
2018-06-13T20:09:28.337Z,16.20
2018-06-13T20:12:00.583Z,16.30
2018-06-13T20:14:33.940Z,16.10
2018-06-13T20:17:07.154Z,15.90
2018-06-13T20:19:36.795Z,16.00
2018-06-13T20:22:04.600Z,16.00
2018-06-13T20:27:05.548Z,15.90
2018-06-13T20:29:38.879Z,15.70
2018-06-13T20:32:06.627Z,15.60
2018-06-13T20:34:34.432Z,15.30
2018-06-13T20:37:02.251Z,15.70
2018-06-13T20:39:29.999Z,15.20
2018-06-13T20:41:57.847Z,15.30
2018-06-13T20:44:25.619Z,15.30
2018-06-13T20:46:53.380Z,15.10
2018-06-13T20:49:21.208Z,15.10
2018-06-13T20:51:48.991Z,15.10
2018-06-13T20:54:16.713Z,14.80
2018-06-13T20:56:44.502Z,15.20
2018-06-13T20:59:12.340Z,14.70
2018-06-13T21:01:41.152Z,15.10
2018-06-13T21:04:09.467Z,15.00
2018-06-13T21:06:37.319Z,14.70
2018-06-13T21:09:07.574Z,14.70
2018-06-13T21:14:03.073Z,15.00
2018-06-13T21:16:30.938Z,14.60
2018-06-13T21:18:58.660Z,14.60
2018-06-13T21:21:26.420Z,14.50
2018-06-13T21:23:54.180Z,14.50
2018-06-13T21:31:17.536Z,14.50
2018-06-13T21:33:45.288Z,14.70
2018-06-13T21:36:13.158Z,14.10
2018-06-13T21:38:40.940Z,14.20
2018-06-13T21:41:08.692Z,14.60
2018-06-13T21:43:37.061Z,14.10
2018-06-13T21:46:05.020Z,14.20
2018-06-13T21:48:32.783Z,14.30
2018-06-13T21:51:00.508Z,14.20
2018-06-13T21:55:55.918Z,14.00
2018-06-13T21:58:23.632Z,14.30
2018-06-13T22:00:51.455Z,14.10
2018-06-13T22:05:46.768Z,14.10
2018-06-13T22:08:14.532Z,13.80
2018-06-13T22:10:42.266Z,13.60
2018-06-13T22:13:10.055Z,14.10
2018-06-13T22:15:37.905Z,13.60
2018-06-13T22:18:05.698Z,13.70
2018-06-13T22:20:33.439Z,13.50
2018-06-13T22:23:01.158Z,13.80
2018-06-13T22:25:28.923Z,13.60
2018-06-13T22:27:56.632Z,13.60
2018-06-13T22:30:24.384Z,13.80
2018-06-13T22:32:52.093Z,13.50
2018-06-13T22:37:47.444Z,13.60
2018-06-13T22:40:15.147Z,13.60
2018-06-13T22:42:42.905Z,13.60
2018-06-13T22:45:10.632Z,13.20
2018-06-13T22:47:38.357Z,13.10
2018-06-13T22:50:06.137Z,13.10
2018-06-13T22:52:33.864Z,13.30
2018-06-13T22:55:01.576Z,13.10
2018-06-13T22:59:57.911Z,13.20
2018-06-13T23:04:53.207Z,13.10
2018-06-13T23:07:20.945Z,13.20
2018-06-13T23:09:48.682Z,13.10
2018-06-13T23:12:16.440Z,13.20
2018-06-13T23:17:11.841Z,13.00
2018-06-13T23:19:39.610Z,13.10
2018-06-13T23:22:07.278Z,13.20
2018-06-13T23:24:35.018Z,13.00
2018-06-13T23:27:02.740Z,13.20
2018-06-13T23:29:30.536Z,13.00
2018-06-13T23:31:58.319Z,12.60
2018-06-13T23:34:26.061Z,13.20
2018-06-13T23:36:53.874Z,12.60
2018-06-13T23:39:21.609Z,12.90
2018-06-13T23:41:49.391Z,12.60
2018-06-13T23:44:17.130Z,12.70
2018-06-13T23:46:44.869Z,12.70
2018-06-13T23:49:12.580Z,12.80
2018-06-13T23:51:40.292Z,13.10
2018-06-13T23:54:07.981Z,12.90
2018-06-13T23:56:35.733Z,12.90
2018-06-13T23:59:04.167Z,12.60
